Time;durP1;ratioP1;P1;durP2;ratioP2;P2;SDS_P1;SDS_P2;PMS_P1;PMS_P2;Temp;Humidity;BMP_temperature;BMP_pressure;BME280_temperature;BME280_humidity;BME280_pressure;Samples;Min_cycle;Max_cycle;Signal;HPM_P1;HPM_P2
2023/01/04 00:01:33;;;;;;;;;;;;;;;;;;5069310;28;19920;-59
2023/01/04 00:03:58;;;;;;;;;;;;;;;;;;5063616;28;20281;-59
2023/01/04 00:06:23;;;;;;;;;;;;;;;;;;5067927;28;20007;-59
2023/01/04 00:08:48;;;;;;;;;;;;;;;;;;5074038;28;19913;-59
2023/01/04 00:11:13;;;;;;;;;;;;;;;;;;5070463;28;19928;-59
2023/01/04 00:13:38;;;;;;;;;;;;;;;;;;5056455;28;20007;-59
2023/01/04 00:16:03;;;;;;;;;;;;;;;;;;5076477;28;20431;-58
2023/01/04 00:18:29;;;;;;;;;;;;;;;;;;5071142;28;19920;-59
2023/01/04 00:20:54;;;;;;;;;;;;;;;;;;5057078;28;20069;-59
2023/01/04 00:23:19;;;;;;;;;;;;;;;;;;5068089;28;19912;-59
2023/01/04 00:25:44;;;;;;;;;;;;;;;;;;5069623;28;20003;-59
2023/01/04 00:28:09;;;;;;;;;;;;;;;;;;5074018;28;19912;-60
2023/01/04 00:30:34;;;;;;;;;;;;;;;;;;5051921;28;19981;-59
2023/01/04 00:32:59;;;;;;;;;;;;;;;;;;5076634;28;19912;-60
2023/01/04 00:35:24;;;;;;;;;;;;;;;;;;5064209;28;20007;-59
2023/01/04 00:37:50;;;;;;;;;;;;;;;;;;5071361;28;19913;-59
2023/01/04 00:40:15;;;;;;;;;;;;;;;;;;5068565;28;19981;-59
2023/01/04 00:42:40;;;;;;;;;;;;;;;;;;5079127;28;19920;-59
2023/01/04 00:45:05;;;;;;;;;;;;;;;;;;5068533;28;19942;-58
2023/01/04 00:47:30;;;;;;;;;;;;;;;;;;5065231;28;20001;-59
2023/01/04 00:49:55;;;;;;;;;;;;;;;;;;5065573;28;20323;-57
2023/01/04 00:52:20;;;;;;;;;;;;;;;;;;5069022;28;19928;-59
2023/01/04 00:54:45;;;;;;;;;;;;;;;;;;5053115;28;20365;-59
2023/01/04 00:57:11;;;;;;;;;;;;;;;;;;5069980;28;19963;-59
2023/01/04 00:59:36;;;;;;;;;;;;;;;;;;5070937;28;19973;-58
2023/01/04 01:02:01;;;;;;;;;;;;;;;;;;5066764;28;19962;-59
2023/01/04 01:04:26;;;;;;;;;;;;;;;;;;5069046;28;20272;-59
2023/01/04 01:06:51;;;;;;;;;;;;;;;;;;5068623;28;19966;-59
2023/01/04 01:09:16;;;;;;;;;;;;;;;;;;5069591;28;19919;-59
2023/01/04 01:11:41;;;;;;;;;;;;;;;;;;5072781;28;20388;-59
2023/01/04 01:14:07;;;;;;;;;;;;;;;;;;5073080;28;19975;-59
2023/01/04 01:16:32;;;;;;;;;;;;;;;;;;5066719;28;19913;-59
2023/01/04 01:18:57;;;;;;;;;;;;;;;;;;5074265;28;19957;-59
2023/01/04 01:21:22;;;;;;;;;;;;;;;;;;5074252;28;20008;-59
2023/01/04 01:23:47;;;;;;;;;;;;;;;;;;5078624;28;19963;-58
2023/01/04 01:26:12;;;;;;;;;;;;;;;;;;5066689;28;19916;-58
2023/01/04 01:28:37;;;;;;;;;;;;;;;;;;5067933;28;19960;-59
2023/01/04 01:31:02;;;;;;;;;;;;;;;;;;5063275;28;19920;-59
2023/01/04 01:33:28;;;;;;;;;;;;;;;;;;5071800;28;19913;-59
2023/01/04 01:35:53;;;;;;;;;;;;;;;;;;5070297;28;20049;-59
2023/01/04 01:38:18;;;;;;;;;;;;;;;;;;5061290;28;19920;-59
2023/01/04 01:40:43;;;;;;;;;;;;;;;;;;5066299;28;20065;-59
2023/01/04 01:43:08;;;;;;;;;;;;;;;;;;5070534;28;19974;-59
2023/01/04 01:45:33;;;;;;;;;;;;;;;;;;5057563;28;20069;-59
2023/01/04 01:47:58;;;;;;;;;;;;;;;;;;5066092;28;19909;-59
2023/01/04 01:50:24;;;;;;;;;;;;;;;;;;5073201;28;19916;-57
2023/01/04 01:52:49;;;;;;;;;;;;;;;;;;5066449;28;19908;-60
2023/01/04 01:55:15;;;;;;;;;;;;;;;;;;5048253;28;19974;-59
2023/01/04 01:57:40;;;;;;;;;;;;;;;;;;5074440;28;20360;-59
2023/01/04 02:00:06;;;;;;;;;;;;;;;;;;5064793;28;20010;-59
2023/01/04 02:02:31;;;;;;;;;;;;;;;;;;5074040;28;19913;-60
2023/01/04 02:04:56;;;;;;;;;;;;;;;;;;5060944;28;20364;-59
2023/01/04 02:07:21;;;;;;;;;;;;;;;;;;5068872;28;19912;-60
2023/01/04 02:09:46;;;;;;;;;;;;;;;;;;5063774;28;19955;-60
2023/01/04 02:12:11;;;;;;;;;;;;;;;;;;5080199;28;20371;-60
2023/01/04 02:14:36;;;;;;;;;;;;;;;;;;5061712;28;19909;-59
2023/01/04 02:17:01;;;;;;;;;;;;;;;;;;5062309;28;19919;-59
2023/01/04 02:19:27;;;;;;;;;;;;;;;;;;5071106;28;20292;-59
2023/01/04 02:21:52;;;;;;;;;;;;;;;;;;5073901;28;20356;-60
2023/01/04 02:24:17;;;;;;;;;;;;;;;;;;5082382;28;19909;-60
2023/01/04 02:26:42;;;;;;;;;;;;;;;;;;5066408;28;19915;-59
2023/01/04 02:29:07;;;;;;;;;;;;;;;;;;5079075;28;19918;-60
2023/01/04 02:31:32;;;;;;;;;;;;;;;;;;5073332;28;19916;-59
2023/01/04 02:33:58;;;;;;;;;;;;;;;;;;5072643;28;19920;-60
2023/01/04 02:36:23;;;;;;;;;;;;;;;;;;5070727;28;19962;-60
2023/01/04 02:38:48;;;;;;;;;;;;;;;;;;5071985;28;19931;-58
2023/01/04 02:41:13;;;;;;;;;;;;;;;;;;5064365;28;19935;-60
2023/01/04 02:46:22;;;;;;;;;;;;;;;;;;5063049;28;19928;-60
2023/01/04 02:51:31;;;;;;;;;;;;;;;;;;5067924;28;20288;-60
2023/01/04 02:53:56;;;;;;;;;;;;;;;;;;5070987;28;20369;-60
2023/01/04 02:56:42;;;;;;;;;;;;;;;;;;5071539;28;19966;-60
2023/01/04 02:59:06;;;;;;;;;;;;;;;;;;5067069;28;20727;-60
2023/01/04 03:06:59;;;;;;;;;;;;;;;;;;5067681;28;19919;-59
2023/01/04 03:09:24;;;;;;;;;;;;;;;;;;5071588;28;20383;-59
2023/01/04 03:12:50;;;;;;;;;;;;;;;;;;5054124;28;19916;-60
2023/01/04 03:14:44;;;;;;;;;;;;;;;;;;5062973;28;19923;-60
2023/01/04 03:17:09;;;;;;;;;;;;;;;;;;5074204;28;20364;-60
2023/01/04 03:19:55;;;;;;;;;;;;;;;;;;5068541;28;20371;-59
2023/01/04 03:35:59;;;;;;;;;;;;;;;;;;5070245;28;20414;-60
2023/01/04 03:49:20;;;;;;;;;;;;;;;;;;5074540;28;19919;-59
2023/01/04 03:51:45;;;;;;;;;;;;;;;;;;5071512;28;19925;-59
2023/01/04 03:54:10;;;;;;;;;;;;;;;;;;5063307;28;19909;-59
2023/01/04 03:56:35;;;;;;;;;;;;;;;;;;5057033;28;19911;-60
2023/01/04 03:59:01;;;;;;;;;;;;;;;;;;5072617;28;19913;-59
2023/01/04 04:01:26;;;;;;;;;;;;;;;;;;5068493;28;19908;-59
2023/01/04 04:09:19;;;;;;;;;;;;;;;;;;5073567;28;19935;-58
2023/01/04 04:11:44;;;;;;;;;;;;;;;;;;5065537;28;20011;-60
2023/01/04 04:14:09;;;;;;;;;;;;;;;;;;5066161;28;19913;-59
2023/01/04 04:16:34;;;;;;;;;;;;;;;;;;5068088;28;19913;-59
2023/01/04 04:18:59;;;;;;;;;;;;;;;;;;5070345;28;19918;-59
2023/01/04 04:21:24;;;;;;;;;;;;;;;;;;5068184;28;20019;-59
2023/01/04 04:23:50;;;;;;;;;;;;;;;;;;5067017;28;20322;-59
2023/01/04 04:26:15;;;;;;;;;;;;;;;;;;5071184;28;20026;-59
2023/01/04 04:28:40;;;;;;;;;;;;;;;;;;5070892;28;19913;-58
2023/01/04 04:31:05;;;;;;;;;;;;;;;;;;5071107;28;19920;-59
2023/01/04 04:33:30;;;;;;;;;;;;;;;;;;5067963;28;20001;-60
2023/01/04 04:35:55;;;;;;;;;;;;;;;;;;5069972;28;19963;-60
2023/01/04 04:38:20;;;;;;;;;;;;;;;;;;5063917;28;19966;-59
2023/01/04 04:43:29;;;;;;;;;;;;;;;;;;5068959;28;19958;-59
2023/01/04 04:45:55;;;;;;;;;;;;;;;;;;5072228;28;20119;-59
2023/01/04 04:48:20;;;;;;;;;;;;;;;;;;5069777;28;20331;-59
2023/01/04 04:50:45;;;;;;;;;;;;;;;;;;5070846;28;19928;-59
2023/01/04 04:53:10;;;;;;;;;;;;;;;;;;5068738;28;19912;-60
2023/01/04 04:55:35;;;;;;;;;;;;;;;;;;5076957;28;19916;-61
2023/01/04 04:58:00;;;;;;;;;;;;;;;;;;5070204;28;20015;-60
2023/01/04 05:00:26;;;;;;;;;;;;;;;;;;5068367;28;20023;-59
2023/01/04 05:02:51;;;;;;;;;;;;;;;;;;5069668;28;19920;-60
2023/01/04 05:05:16;;;;;;;;;;;;;;;;;;5064526;28;20198;-59
2023/01/04 05:07:41;;;;;;;;;;;;;;;;;;5077412;28;20288;-59
2023/01/04 05:10:06;;;;;;;;;;;;;;;;;;5069043;28;19912;-59
2023/01/04 05:15:15;;;;;;;;;;;;;;;;;;5063914;28;20403;-59
2023/01/04 05:17:40;;;;;;;;;;;;;;;;;;5074193;28;19920;-60
2023/01/04 05:20:05;;;;;;;;;;;;;;;;;;5073105;28;19916;-60
2023/01/04 05:22:31;;;;;;;;;;;;;;;;;;5068878;28;19921;-59
2023/01/04 05:24:56;;;;;;;;;;;;;;;;;;5065090;28;19919;-59
2023/01/04 05:27:21;;;;;;;;;;;;;;;;;;5078151;28;20345;-59
2023/01/04 05:32:30;;;;;;;;;;;;;;;;;;5070310;28;19922;-60
2023/01/04 05:34:55;;;;;;;;;;;;;;;;;;5066547;28;20007;-59
2023/01/04 05:37:20;;;;;;;;;;;;;;;;;;5067450;28;19981;-60
2023/01/04 05:39:45;;;;;;;;;;;;;;;;;;5065012;28;19917;-60
2023/01/04 05:42:26;;;;;;;;;;;;;;;;;;5068608;28;19920;-59
2023/01/04 05:44:51;;;;;;;;;;;;;;;;;;5052483;28;19916;-60
2023/01/04 05:47:17;;;;;;;;;;;;;;;;;;5065849;28;19924;-60
2023/01/04 05:49:42;;;;;;;;;;;;;;;;;;5068726;28;20015;-59
2023/01/04 05:52:07;;;;;;;;;;;;;;;;;;5064010;28;20372;-59
2023/01/04 05:54:32;;;;;;;;;;;;;;;;;;5063965;28;20003;-60
2023/01/04 05:56:57;;;;;;;;;;;;;;;;;;5075791;28;19956;-58
2023/01/04 05:59:22;;;;;;;;;;;;;;;;;;5064841;28;19916;-59
2023/01/04 06:01:47;;;;;;;;;;;;;;;;;;5072582;28;19913;-58
2023/01/04 06:04:13;;;;;;;;;;;;;;;;;;5060070;28;20292;-61
2023/01/04 06:06:38;;;;;;;;;;;;;;;;;;5062713;28;19958;-61
2023/01/04 06:09:03;;;;;;;;;;;;;;;;;;5073176;28;19961;-60
2023/01/04 06:11:28;;;;;;;;;;;;;;;;;;5058452;28;20288;-59
2023/01/04 06:13:53;;;;;;;;;;;;;;;;;;5063829;28;20411;-60
2023/01/04 06:16:18;;;;;;;;;;;;;;;;;;5058399;28;19924;-60
2023/01/04 06:18:43;;;;;;;;;;;;;;;;;;5066292;28;19913;-60
2023/01/04 06:21:09;;;;;;;;;;;;;;;;;;5072341;28;19948;-59
2023/01/04 06:23:34;;;;;;;;;;;;;;;;;;5074121;28;19915;-58
2023/01/04 06:25:59;;;;;;;;;;;;;;;;;;5072536;28;19919;-60
2023/01/04 06:28:24;;;;;;;;;;;;;;;;;;5075083;28;19912;-60
2023/01/04 06:30:49;;;;;;;;;;;;;;;;;;5081376;28;19912;-60
2023/01/04 06:33:14;;;;;;;;;;;;;;;;;;5094549;28;19912;-60
2023/01/04 06:35:39;;;;;;;;;;;;;;;;;;5078249;28;20276;-60
2023/01/04 06:38:04;;;;;;;;;;;;;;;;;;5074249;28;20010;-60
2023/01/04 06:40:30;;;;;;;;;;;;;;;;;;5073790;28;19970;-60
2023/01/04 06:42:55;;;;;;;;;;;;;;;;;;5074352;28;19913;-60
2023/01/04 06:45:20;;;;;;;;;;;;;;;;;;5068507;28;19913;-61
2023/01/04 06:47:46;;;;;;;;;;;;;;;;;;5074598;28;19908;-60
2023/01/04 06:50:12;;;;;;;;;;;;;;;;;;5074490;28;19973;-60
2023/01/04 06:52:37;;;;;;;;;;;;;;;;;;5073760;28;20368;-60
2023/01/04 06:55:02;;;;;;;;;;;;;;;;;;5072301;28;20011;-59
2023/01/04 06:57:27;;;;;;;;;;;;;;;;;;5073525;28;20257;-61
2023/01/04 06:59:52;;;;;;;;;;;;;;;;;;5055943;28;20369;-59
2023/01/04 07:02:17;;;;;;;;;;;;;;;;;;5079643;28;20405;-59
2023/01/04 07:04:42;;;;;;;;;;;;;;;;;;5080486;28;19928;-60
2023/01/04 07:07:08;;;;;;;;;;;;;;;;;;5072888;28;19913;-58
2023/01/04 07:09:33;;;;;;;;;;;;;;;;;;5073485;28;19908;-60
2023/01/04 07:11:58;;;;;;;;;;;;;;;;;;5073664;28;20264;-59
2023/01/04 07:14:23;;;;;;;;;;;;;;;;;;5063140;28;20284;-60
2023/01/04 07:16:49;;;;;;;;;;;;;;;;;;5073702;28;19919;-59
2023/01/04 07:19:14;;;;;;;;;;;;;;;;;;5094167;28;19958;-60
2023/01/04 07:21:39;;;;;;;;;;;;;;;;;;5073822;28;19930;-59
2023/01/04 07:24:04;;;;;;;;;;;;;;;;;;5073607;28;19940;-58
2023/01/04 07:26:29;;;;;;;;;;;;;;;;;;5073359;28;19909;-59
2023/01/04 07:29:13;;;;;;;;;;;;;;;;;;5072579;28;19961;-60
2023/01/04 07:31:38;;;;;;;;;;;;;;;;;;5073004;28;19995;-60
2023/01/04 07:34:03;;;;;;;;;;;;;;;;;;5072914;28;20004;-60
2023/01/04 07:36:28;;;;;;;;;;;;;;;;;;5071661;28;20287;-60
2023/01/04 07:38:53;;;;;;;;;;;;;;;;;;5060797;28;20285;-59
2023/01/04 07:41:18;;;;;;;;;;;;;;;;;;5052407;28;19961;-60
2023/01/04 07:43:43;;;;;;;;;;;;;;;;;;5053204;28;19960;-60
2023/01/04 07:46:09;;;;;;;;;;;;;;;;;;5053357;28;19908;-60
2023/01/04 07:48:34;;;;;;;;;;;;;;;;;;5051929;28;20012;-60
2023/01/04 07:50:59;;;;;;;;;;;;;;;;;;5050433;28;19928;-61
2023/01/04 07:53:24;;;;;;;;;;;;;;;;;;5050216;28;19920;-60
2023/01/04 07:55:50;;;;;;;;;;;;;;;;;;5051800;28;19913;-60
2023/01/04 07:58:15;;;;;;;;;;;;;;;;;;5052935;28;19909;-60
2023/01/04 08:00:40;;;;;;;;;;;;;;;;;;5050791;28;20452;-59
2023/01/04 08:03:05;;;;;;;;;;;;;;;;;;5052039;28;19921;-59
2023/01/04 08:05:30;;;;;;;;;;;;;;;;;;5051357;28;19919;-59
2023/01/04 08:07:55;;;;;;;;;;;;;;;;;;5052732;28;20011;-59
2023/01/04 08:10:20;;;;;;;;;;;;;;;;;;5056344;28;19919;-59
2023/01/04 08:12:46;;;;;;;;;;;;;;;;;;5052573;28;19913;-58
2023/01/04 08:15:11;;;;;;;;;;;;;;;;;;5068768;28;19948;-59
2023/01/04 08:17:36;;;;;;;;;;;;;;;;;;5052008;28;19920;-59
2023/01/04 08:20:01;;;;;;;;;;;;;;;;;;5045653;28;20381;-59
2023/01/04 08:22:26;;;;;;;;;;;;;;;;;;5042960;28;19956;-59
2023/01/04 08:24:51;;;;;;;;;;;;;;;;;;5051225;28;20281;-60
2023/01/04 08:27:17;;;;;;;;;;;;;;;;;;5053993;28;20388;-59
2023/01/04 08:29:42;;;;;;;;;;;;;;;;;;5050959;28;19965;-57
2023/01/04 08:32:07;;;;;;;;;;;;;;;;;;5039357;28;20274;-59
2023/01/04 08:34:32;;;;;;;;;;;;;;;;;;5033073;28;19913;-59
2023/01/04 08:36:57;;;;;;;;;;;;;;;;;;5043963;28;20288;-60
2023/01/04 08:39:23;;;;;;;;;;;;;;;;;;5051130;28;19970;-59
2023/01/04 08:41:52;;;;;;;;;;;;;;;;;;5053766;28;19921;-59
2023/01/04 08:44:17;;;;;;;;;;;;;;;;;;5054985;28;19912;-60
2023/01/04 08:46:42;;;;;;;;;;;;;;;;;;5051347;28;19954;-60
2023/01/04 08:49:08;;;;;;;;;;;;;;;;;;5070876;28;19908;-60
2023/01/04 08:51:33;;;;;;;;;;;;;;;;;;5052769;28;19932;-60
2023/01/04 08:53:58;;;;;;;;;;;;;;;;;;5051801;28;20289;-59
2023/01/04 08:56:23;;;;;;;;;;;;;;;;;;5052073;28;19970;-60
2023/01/04 08:58:48;;;;;;;;;;;;;;;;;;5051802;28;19917;-60
2023/01/04 09:01:13;;;;;;;;;;;;;;;;;;5052472;28;19996;-60
2023/01/04 09:03:39;;;;;;;;;;;;;;;;;;5033388;28;19919;-60
2023/01/04 09:06:04;;;;;;;;;;;;;;;;;;5049560;28;19916;-60
2023/01/04 09:08:29;;;;;;;;;;;;;;;;;;5033980;28;19909;-59
2023/01/04 09:10:54;;;;;;;;;;;;;;;;;;5052608;28;19921;-60
2023/01/04 09:13:19;;;;;;;;;;;;;;;;;;5050296;28;19913;-59
2023/01/04 09:15:44;;;;;;;;;;;;;;;;;;5067658;28;20003;-60
2023/01/04 09:18:10;;;;;;;;;;;;;;;;;;5072167;28;19916;-60
2023/01/04 09:20:35;;;;;;;;;;;;;;;;;;5072246;28;19912;-59
2023/01/04 09:23:00;;;;;;;;;;;;;;;;;;5053232;28;19975;-60
2023/01/04 09:25:25;;;;;;;;;;;;;;;;;;5051663;28;19920;-60
2023/01/04 09:27:51;;;;;;;;;;;;;;;;;;5061648;28;19916;-60
2023/01/04 09:30:16;;;;;;;;;;;;;;;;;;5054074;28;20394;-60
2023/01/04 09:32:41;;;;;;;;;;;;;;;;;;5057652;28;19912;-60
2023/01/04 09:35:07;;;;;;;;;;;;;;;;;;5055630;28;19917;-60
2023/01/04 09:37:32;;;;;;;;;;;;;;;;;;5059117;28;20277;-60
2023/01/04 09:39:57;;;;;;;;;;;;;;;;;;5057810;28;20402;-60
2023/01/04 09:42:22;;;;;;;;;;;;;;;;;;5055756;28;20187;-58
2023/01/04 09:44:47;;;;;;;;;;;;;;;;;;5054321;28;19913;-60
2023/01/04 09:47:12;;;;;;;;;;;;;;;;;;5055495;28;19920;-60
2023/01/04 09:49:37;;;;;;;;;;;;;;;;;;5055513;28;19997;-60
2023/01/04 09:52:03;;;;;;;;;;;;;;;;;;5037204;28;19928;-60
2023/01/04 09:54:28;;;;;;;;;;;;;;;;;;5060457;28;20574;-59
2023/01/04 09:56:53;;;;;;;;;;;;;;;;;;5055144;28;20372;-60
2023/01/04 09:59:18;;;;;;;;;;;;;;;;;;5055064;28;19909;-60
2023/01/04 10:01:44;;;;;;;;;;;;;;;;;;5054800;28;20112;-60
2023/01/04 10:04:09;;;;;;;;;;;;;;;;;;5053989;28;19916;-60
2023/01/04 10:06:34;;;;;;;;;;;;;;;;;;5054646;28;19970;-60
2023/01/04 10:08:59;;;;;;;;;;;;;;;;;;5054811;28;19920;-60
2023/01/04 10:11:25;;;;;;;;;;;;;;;;;;5074800;28;20019;-60
2023/01/04 10:13:50;;;;;;;;;;;;;;;;;;5054224;28;19920;-60
2023/01/04 10:16:15;;;;;;;;;;;;;;;;;;5053012;28;19913;-60
2023/01/04 10:18:40;;;;;;;;;;;;;;;;;;5054125;28;19919;-60
2023/01/04 10:21:05;;;;;;;;;;;;;;;;;;5054988;28;20103;-60
2023/01/04 10:23:30;;;;;;;;;;;;;;;;;;5060563;28;19913;-60
2023/01/04 10:25:55;;;;;;;;;;;;;;;;;;5054758;28;19975;-60
2023/01/04 10:28:21;;;;;;;;;;;;;;;;;;5054555;28;19943;-61
2023/01/04 10:30:46;;;;;;;;;;;;;;;;;;5053158;28;19990;-60
2023/01/04 10:33:11;;;;;;;;;;;;;;;;;;5054311;28;19959;-60
2023/01/04 10:35:36;;;;;;;;;;;;;;;;;;5052237;28;19936;-60
2023/01/04 10:38:02;;;;;;;;;;;;;;;;;;5060843;28;20372;-60
2023/01/04 10:40:27;;;;;;;;;;;;;;;;;;5059059;28;19959;-60
2023/01/04 10:42:52;;;;;;;;;;;;;;;;;;5072552;28;19909;-60
2023/01/04 10:45:17;;;;;;;;;;;;;;;;;;5054587;28;19992;-59
2023/01/04 10:47:42;;;;;;;;;;;;;;;;;;5052287;28;19913;-60
2023/01/04 10:50:08;;;;;;;;;;;;;;;;;;5036296;28;19913;-60
2023/01/04 10:52:33;;;;;;;;;;;;;;;;;;5054115;28;19926;-60
2023/01/04 10:54:58;;;;;;;;;;;;;;;;;;5066769;28;19923;-60
2023/01/04 10:57:24;;;;;;;;;;;;;;;;;;5057431;28;19913;-60
2023/01/04 10:59:49;;;;;;;;;;;;;;;;;;5053322;28;19955;-60
2023/01/04 11:02:14;;;;;;;;;;;;;;;;;;5053913;28;20019;-60
2023/01/04 11:04:39;;;;;;;;;;;;;;;;;;5051515;28;20031;-60
2023/01/04 11:07:04;;;;;;;;;;;;;;;;;;5053703;28;20283;-59
2023/01/04 11:09:29;;;;;;;;;;;;;;;;;;5050638;28;20059;-59
2023/01/04 11:11:54;;;;;;;;;;;;;;;;;;5066213;28;19927;-60
2023/01/04 11:14:20;;;;;;;;;;;;;;;;;;5053412;28;19909;-60
2023/01/04 11:16:46;;;;;;;;;;;;;;;;;;5043078;28;20325;-60
2023/01/04 11:19:11;;;;;;;;;;;;;;;;;;5065898;28;19913;-60
2023/01/04 11:21:36;;;;;;;;;;;;;;;;;;5053165;28;19913;-60
2023/01/04 11:24:01;;;;;;;;;;;;;;;;;;5053771;28;19916;-60
2023/01/04 11:26:28;;;;;;;;;;;;;;;;;;5064279;28;20046;-60
2023/01/04 11:28:53;;;;;;;;;;;;;;;;;;5053555;28;19909;-59
2023/01/04 11:31:18;;;;;;;;;;;;;;;;;;5052566;28;20333;-60
2023/01/04 11:33:43;;;;;;;;;;;;;;;;;;5052680;28;19963;-60
2023/01/04 11:36:08;;;;;;;;;;;;;;;;;;5050488;28;19974;-59
2023/01/04 11:38:33;;;;;;;;;;;;;;;;;;5057405;28;19947;-60
2023/01/04 11:40:59;;;;;;;;;;;;;;;;;;5052994;28;19913;-60
2023/01/04 11:43:24;;;;;;;;;;;;;;;;;;5053033;28;19948;-59
2023/01/04 11:45:49;;;;;;;;;;;;;;;;;;5054131;28;19916;-59
2023/01/04 11:48:14;;;;;;;;;;;;;;;;;;5073221;28;19909;-61
2023/01/04 11:50:39;;;;;;;;;;;;;;;;;;5065304;28;20396;-60
2023/01/04 11:53:04;;;;;;;;;;;;;;;;;;5035111;28;20425;-61
2023/01/04 11:55:29;;;;;;;;;;;;;;;;;;5032977;28;19917;-60
2023/01/04 11:57:55;;;;;;;;;;;;;;;;;;5052780;28;19943;-61
2023/01/04 12:00:20;;;;;;;;;;;;;;;;;;5052602;28;19952;-60
2023/01/04 12:02:45;;;;;;;;;;;;;;;;;;5051019;28;19913;-61
2023/01/04 12:05:10;;;;;;;;;;;;;;;;;;5049990;28;19919;-61
2023/01/04 12:07:35;;;;;;;;;;;;;;;;;;5052576;28;20327;-60
2023/01/04 12:10:00;;;;;;;;;;;;;;;;;;5054796;28;20321;-60
2023/01/04 12:12:25;;;;;;;;;;;;;;;;;;5051269;28;19921;-60
2023/01/04 12:14:50;;;;;;;;;;;;;;;;;;5052566;28;19909;-60
2023/01/04 12:17:16;;;;;;;;;;;;;;;;;;5044975;28;20022;-59
2023/01/04 12:19:41;;;;;;;;;;;;;;;;;;5066015;28;20414;-60
2023/01/04 12:22:06;;;;;;;;;;;;;;;;;;5064031;28;19937;-60
2023/01/04 12:24:31;;;;;;;;;;;;;;;;;;5047006;28;19909;-61
2023/01/04 12:26:56;;;;;;;;;;;;;;;;;;5058204;28;19912;-60
2023/01/04 12:29:21;;;;;;;;;;;;;;;;;;5049924;28;19916;-60
2023/01/04 12:31:47;;;;;;;;;;;;;;;;;;5050669;28;19970;-60
2023/01/04 12:34:12;;;;;;;;;;;;;;;;;;5049560;28;19982;-60
2023/01/04 12:36:37;;;;;;;;;;;;;;;;;;5048295;28;19921;-61
2023/01/04 12:39:02;;;;;;;;;;;;;;;;;;5058306;28;19955;-60
2023/01/04 12:41:27;;;;;;;;;;;;;;;;;;5053897;28;20396;-58
2023/01/04 12:43:52;;;;;;;;;;;;;;;;;;5053813;28;19919;-59
2023/01/04 12:49:02;;;;;;;;;;;;;;;;;;5049794;28;19913;-60
2023/01/04 12:49:02;;;;;;;;;;;;;;;;;;5044111;28;19958;-60
2023/01/04 12:51:28;;;;;;;;;;;;;;;;;;5043557;28;19928;-59
2023/01/04 12:53:53;;;;;;;;;;;;;;;;;;5063037;28;20391;-59
2023/01/04 12:56:18;;;;;;;;;;;;;;;;;;5050006;28;20382;-59
2023/01/04 12:58:43;;;;;;;;;;;;;;;;;;5050783;28;19972;-60
2023/01/04 13:01:08;;;;;;;;;;;;;;;;;;5050081;28;19913;-59
2023/01/04 13:03:33;;;;;;;;;;;;;;;;;;5057725;28;20288;-59
2023/01/04 13:05:59;;;;;;;;;;;;;;;;;;5030649;28;20390;-59
2023/01/04 13:08:24;;;;;;;;;;;;;;;;;;5054196;28;20003;-60
2023/01/04 13:10:53;;;;;;;;;;;;;;;;;;5047722;28;19917;-58
2023/01/04 13:13:19;;;;;;;;;;;;;;;;;;5048014;28;20028;-59
2023/01/04 13:15:44;;;;;;;;;;;;;;;;;;5053591;28;20003;-59
2023/01/04 13:18:09;;;;;;;;;;;;;;;;;;5052609;28;19913;-59
2023/01/04 13:20:34;;;;;;;;;;;;;;;;;;5060633;28;20331;-61
2023/01/04 13:22:59;;;;;;;;;;;;;;;;;;5056352;28;19917;-60
2023/01/04 13:25:24;;;;;;;;;;;;;;;;;;5052036;28;19921;-60
2023/01/04 13:27:49;;;;;;;;;;;;;;;;;;5046075;28;19920;-60
2023/01/04 13:30:15;;;;;;;;;;;;;;;;;;5036410;28;20326;-60
2023/01/04 13:32:40;;;;;;;;;;;;;;;;;;5053947;28;19927;-60
2023/01/04 13:35:05;;;;;;;;;;;;;;;;;;5052941;28;19924;-60
2023/01/04 13:37:30;;;;;;;;;;;;;;;;;;5044382;28;19948;-59
2023/01/04 13:39:55;;;;;;;;;;;;;;;;;;5071852;28;19917;-60
2023/01/04 13:42:20;;;;;;;;;;;;;;;;;;5068944;28;20003;-60
2023/01/04 13:44:45;;;;;;;;;;;;;;;;;;5061004;28;19917;-60
2023/01/04 13:47:11;;;;;;;;;;;;;;;;;;5061025;28;19919;-59
2023/01/04 13:49:36;;;;;;;;;;;;;;;;;;5073830;28;20011;-60
2023/01/04 13:52:01;;;;;;;;;;;;;;;;;;5080357;28;19942;-61
2023/01/04 13:54:26;;;;;;;;;;;;;;;;;;5074094;28;19916;-60
2023/01/04 13:56:53;;;;;;;;;;;;;;;;;;5068325;28;20372;-60
2023/01/04 13:59:19;;;;;;;;;;;;;;;;;;5064457;28;19916;-60
2023/01/04 14:01:44;;;;;;;;;;;;;;;;;;5071091;28;19919;-60
2023/01/04 14:04:10;;;;;;;;;;;;;;;;;;5074846;28;20006;-59
2023/01/04 14:06:35;;;;;;;;;;;;;;;;;;5067151;28;20015;-61
2023/01/04 14:09:00;;;;;;;;;;;;;;;;;;5073492;28;20380;-61
2023/01/04 14:14:09;;;;;;;;;;;;;;;;;;5070176;28;19958;-60
2023/01/04 14:16:34;;;;;;;;;;;;;;;;;;5080631;28;19916;-60
2023/01/04 14:18:59;;;;;;;;;;;;;;;;;;5072747;28;19915;-60
2023/01/04 14:21:24;;;;;;;;;;;;;;;;;;5076881;28;19912;-61
2023/01/04 14:23:50;;;;;;;;;;;;;;;;;;5080034;28;19914;-61
2023/01/04 14:26:15;;;;;;;;;;;;;;;;;;5059059;28;19965;-61
2023/01/04 14:28:42;;;;;;;;;;;;;;;;;;5061701;28;20382;-61
2023/01/04 14:31:07;;;;;;;;;;;;;;;;;;5071209;28;20018;-61
2023/01/04 14:33:32;;;;;;;;;;;;;;;;;;5065444;28;20002;-60
2023/01/04 14:35:57;;;;;;;;;;;;;;;;;;5065867;28;19924;-61
2023/01/04 14:38:22;;;;;;;;;;;;;;;;;;5073074;28;19917;-61
2023/01/04 14:40:47;;;;;;;;;;;;;;;;;;5057344;28;19966;-61
2023/01/04 14:43:12;;;;;;;;;;;;;;;;;;5073877;28;19923;-61
2023/01/04 14:45:37;;;;;;;;;;;;;;;;;;5070323;28;19913;-61
2023/01/04 14:48:03;;;;;;;;;;;;;;;;;;5066914;28;20277;-60
2023/01/04 14:50:28;;;;;;;;;;;;;;;;;;5070875;28;20352;-61
2023/01/04 14:52:53;;;;;;;;;;;;;;;;;;5054701;28;20067;-61
2023/01/04 14:55:18;;;;;;;;;;;;;;;;;;5062739;28;19924;-60
2023/01/04 14:57:44;;;;;;;;;;;;;;;;;;5067898;28;19921;-60
2023/01/04 15:00:09;;;;;;;;;;;;;;;;;;5062787;28;19913;-61
2023/01/04 15:02:34;;;;;;;;;;;;;;;;;;5070325;28;19912;-60
2023/01/04 15:04:59;;;;;;;;;;;;;;;;;;5069898;28;19916;-60
2023/01/04 15:07:24;;;;;;;;;;;;;;;;;;5069389;28;20288;-60
2023/01/04 15:09:49;;;;;;;;;;;;;;;;;;5065504;28;20368;-60
2023/01/04 15:12:14;;;;;;;;;;;;;;;;;;5072183;28;19924;-60
2023/01/04 15:14:40;;;;;;;;;;;;;;;;;;5067560;28;20380;-60
2023/01/04 15:17:05;;;;;;;;;;;;;;;;;;5064109;28;20369;-60
2023/01/04 15:19:30;;;;;;;;;;;;;;;;;;5055515;28;19919;-60
2023/01/04 15:21:55;;;;;;;;;;;;;;;;;;5072413;28;19958;-60
2023/01/04 15:24:20;;;;;;;;;;;;;;;;;;5071656;28;20024;-60
2023/01/04 15:26:45;;;;;;;;;;;;;;;;;;5069752;28;19924;-60
2023/01/04 15:29:10;;;;;;;;;;;;;;;;;;5064668;28;19913;-59
2023/01/04 15:31:37;;;;;;;;;;;;;;;;;;5066572;28;19913;-62
2023/01/04 15:34:04;;;;;;;;;;;;;;;;;;5072139;28;21624;-60
2023/01/04 15:36:29;;;;;;;;;;;;;;;;;;5068523;28;19924;-61
2023/01/04 15:38:54;;;;;;;;;;;;;;;;;;5082246;28;19921;-61
2023/01/04 15:44:03;;;;;;;;;;;;;;;;;;5071149;28;19958;-60
2023/01/04 15:46:28;;;;;;;;;;;;;;;;;;5072307;28;20003;-60
2023/01/04 15:48:53;;;;;;;;;;;;;;;;;;5070265;28;19912;-60
2023/01/04 15:51:18;;;;;;;;;;;;;;;;;;5071254;28;20031;-60
2023/01/04 15:53:44;;;;;;;;;;;;;;;;;;5064903;28;20022;-60
2023/01/04 15:56:09;;;;;;;;;;;;;;;;;;5057395;28;20353;-60
2023/01/04 15:58:34;;;;;;;;;;;;;;;;;;5071124;28;19912;-60
2023/01/04 16:00:59;;;;;;;;;;;;;;;;;;5066921;28;19943;-60
2023/01/04 16:03:24;;;;;;;;;;;;;;;;;;5071824;28;19919;-60
2023/01/04 16:05:49;;;;;;;;;;;;;;;;;;5066297;28;19916;-60
2023/01/04 16:08:14;;;;;;;;;;;;;;;;;;5067371;28;20003;-60
2023/01/04 16:10:40;;;;;;;;;;;;;;;;;;5065663;28;19915;-60
2023/01/04 16:13:05;;;;;;;;;;;;;;;;;;5070066;28;19920;-60
2023/01/04 16:15:30;;;;;;;;;;;;;;;;;;5070589;28;19935;-60
2023/01/04 16:17:55;;;;;;;;;;;;;;;;;;5072628;28;19912;-60
2023/01/04 16:20:21;;;;;;;;;;;;;;;;;;5069582;28;19909;-60
2023/01/04 16:22:46;;;;;;;;;;;;;;;;;;5068833;28;19917;-61
2023/01/04 16:25:11;;;;;;;;;;;;;;;;;;5070449;28;19912;-61
2023/01/04 16:27:38;;;;;;;;;;;;;;;;;;5067833;28;19916;-61
2023/01/04 16:30:03;;;;;;;;;;;;;;;;;;5069817;28;19920;-60
2023/01/04 16:32:28;;;;;;;;;;;;;;;;;;5068252;28;20327;-58
2023/01/04 16:34:53;;;;;;;;;;;;;;;;;;5068572;28;20398;-60
2023/01/04 16:37:18;;;;;;;;;;;;;;;;;;5068280;28;20257;-60
2023/01/04 16:39:43;;;;;;;;;;;;;;;;;;5070233;28;19924;-60
2023/01/04 16:42:09;;;;;;;;;;;;;;;;;;5068320;28;19919;-60
2023/01/04 16:44:34;;;;;;;;;;;;;;;;;;5068932;28;19994;-60
2023/01/04 16:46:59;;;;;;;;;;;;;;;;;;5063421;28;20018;-60
2023/01/04 16:49:24;;;;;;;;;;;;;;;;;;5068565;28;19938;-59
2023/01/04 16:51:49;;;;;;;;;;;;;;;;;;5051326;28;19973;-59
2023/01/04 16:54:14;;;;;;;;;;;;;;;;;;5065759;28;19963;-59
2023/01/04 16:56:40;;;;;;;;;;;;;;;;;;5071515;28;19916;-60
2023/01/04 16:59:05;;;;;;;;;;;;;;;;;;5075149;28;19916;-60
2023/01/04 17:01:30;;;;;;;;;;;;;;;;;;5069674;28;19932;-60
2023/01/04 17:03:55;;;;;;;;;;;;;;;;;;5063186;28;19946;-60
2023/01/04 17:06:21;;;;;;;;;;;;;;;;;;5058548;28;20262;-59
2023/01/04 17:08:46;;;;;;;;;;;;;;;;;;5064014;28;19951;-60
2023/01/04 17:11:11;;;;;;;;;;;;;;;;;;5052328;28;19930;-60
2023/01/04 17:13:36;;;;;;;;;;;;;;;;;;5067558;28;19967;-60
2023/01/04 17:16:01;;;;;;;;;;;;;;;;;;5049499;28;19912;-60
2023/01/04 17:18:26;;;;;;;;;;;;;;;;;;5071648;28;19995;-60
2023/01/04 17:20:52;;;;;;;;;;;;;;;;;;5071753;28;19908;-61
2023/01/04 17:23:18;;;;;;;;;;;;;;;;;;5069672;28;19920;-60
2023/01/04 17:25:44;;;;;;;;;;;;;;;;;;5056499;28;19913;-60
2023/01/04 17:28:09;;;;;;;;;;;;;;;;;;5071986;28;19916;-60